Lavelle, Pennsylvania
Current Conditions -  °F | °C
As of 8:36 AM on Tuesday 21 Oct 2014 (Local Time) from KMUI Reporting Station
Haze Haze  
Wind Chill: 50°   Ceiling: 1500
Heat Index: 50°   Visibility: 3mi
Dew Point: 50°   Wind: 2mph
Humidity: 100%   Direction: 30°NNE
Pressure: 29.88"   Gusts: NA
Location:  40.76°N, 76.38°W
Report Text: KMUI 211236Z AUTO 03002KT 3SM BR SCT005 OVC015 10/10 A2988 RMK AO2 CIG 005V015 $
Loading
Personal Weather Stations






























Interactive Weather Map
Tropical Storm Tracking
New forecast layout! Learn more

10-Day Weather Forecast

Advertisements
Track Severe Weather on mobile